UTTT/TAS METAR and TAF weather

Enter ICAO airport designator
Station Type Date Time Source
UTTT METAR 2022/08/16 19:00 UTC NOAA

UTTT 161900Z 04006KT CAVOK 28/14 Q1006 R08L/CLRD70 NOSIG


Station Type Date Time Source
UTTT Decoded METAR 2022/08/16 19:00 UTC NOAA

Tashkent, Uzbekistan (UTTT) 41-16N 069-16E 488M
Aug 16, 2022 - 03:00 PM EDT / 2022.08.16 1900 UTC
Wind: from the NE (040 degrees) at 7 MPH (6 KT):0
Visibility: greater than 7 mile(s):0
Temperature: 82 F (28 C)
Dew Point: 57 F (14 C)
Relative Humidity: 42%
Pressure (altimeter): 29.71 in. Hg (1006 hPa)
ob: UTTT 161900Z 04006KT CAVOK 28/14 Q1006 R08L/CLRD70 NOSIG
cycle: 19

Station Type Date Time Source
UTTT TAF 2022/08/16 18:09 UTC NOAA

TAF UTTT 161700Z 1618/1718 07010KT 7000 NSC
TEMPO 1706/1718 26012KT

Example: see airport list